OISY  Yasouj  Airport

Iran

Add Bookmark
ICAO OISY
Type Airport
Status Operational
Latitude
30° 42' 1" N
30.700500
Longitude
51° 32' 42" E
51.545101
Local (GMT +4.5 ) UTC
May 1, 2016 10:35 am May 1, 2016 06:05
Sunrise-Sunset Local UTC
Begin Civil Twilight 05:52 am 01:22
Sunrise 06:17 am 01:47
Sunset 07:43 pm 15:13
End Civil Twilight 08:09 pm 15:39
VFR
VFR
MVFR
MVFR
IFR
IFR
LIFR
LIFR
Unknown
Unavailable

Current Weather

METAR Observed VFR
OISY 010500Z 00000KT 9000 FEW010 SCT035 13/10 Q1020 Sun, May 1, 2016 @ 05:00 UTC
(1 Hour, 5 Minutes ago)
Visual Flight Rules
Wind Visibility Clouds Conditions
Calm 8,996 m
  • Few at 1,000 ft AGL
  • Scattered at 3,500 ft AGL
  • No significant weather
Temperatures Readings Precipitation
Current Temp
13°C
55°F
Dewpoint
10°C
50°F
Humidity 82%
Altimeter 30.12" Hg
Sea Level Pressure 1,020 mb
Field Elevation
1,811 m
5,942 ft
None Recorded

Additional weather within a 92.6km radius of OISY

Map ICAO Location
OIAH 79.6km W/SW (240°)
VFR
VFR
MVFR
MVFR
IFR
IFR
LIFR
LIFR
Unknown
Unavailable
-
-

CheckWX.com is intended as a tool to help pilots better visualize weather data. It is not intended as a substitute for an official weather briefing obtained from a Flight Service Station. CheckWX.com does not meet the FAA requirements for an official pre-flight weather briefing. Therefore, it's important that pilots still call and obtain an official FSS pre-flight weather briefing.

© 2007-2016 CheckWX.com
06:05:08 UTC